Time;durP1;ratioP1;P1;durP2;ratioP2;P2;SDS_P1;SDS_P2;PMS_P1;PMS_P2;Temp;Humidity;BMP_temperature;BMP_pressure;BME280_temperature;BME280_humidity;BME280_pressure;Samples;Min_cycle;Max_cycle;Signal;HPM_P1;HPM_P2
2022/10/27 00:00:44;;;;;;;12.70;6.00;;;;;;;11.87;100.00;101961.44;6271396;22;20039;-80
2022/10/27 00:03:14;;;;;;;11.40;5.90;;;;;;;11.85;100.00;101965.06;6268061;22;20011;-81
2022/10/27 00:05:39;;;;;;;9.93;6.15;;;;;;;11.81;100.00;101964.28;6271616;22;20069;-81
2022/10/27 00:08:05;;;;;;;8.50;6.05;;;;;;;11.75;100.00;101956.53;6272604;22;20020;-81
2022/10/27 00:10:31;;;;;;;9.77;6.07;;;;;;;11.71;100.00;101968.25;6271616;22;20018;-80
2022/10/27 00:12:56;;;;;;;12.75;6.70;;;;;;;11.67;100.00;101963.94;6271763;22;20483;-81
2022/10/27 00:15:21;;;;;;;10.73;6.65;;;;;;;11.63;100.00;101960.53;6272530;22;20002;-81
2022/10/27 00:17:47;;;;;;;13.52;7.00;;;;;;;11.57;100.00;101963.41;6274339;22;20003;-81
2022/10/27 00:20:12;;;;;;;9.93;6.28;;;;;;;11.53;100.00;101963.56;6275266;22;20460;-80
2022/10/27 00:22:38;;;;;;;9.00;6.32;;;;;;;11.50;100.00;101961.03;6275772;22;20117;-81
2022/10/27 00:25:04;;;;;;;8.27;6.15;;;;;;;11.45;100.00;101958.53;6277980;22;20038;-80
2022/10/27 00:27:29;;;;;;;11.38;6.30;;;;;;;11.51;100.00;101973.44;6275139;22;20007;-81
2022/10/27 00:29:55;;;;;;;8.48;6.20;;;;;;;11.53;100.00;101972.44;6273718;22;20725;-80
2022/10/27 00:32:21;;;;;;;11.23;6.60;;;;;;;11.48;100.00;101972.63;6271330;22;20008;-81
2022/10/27 00:34:46;;;;;;;14.80;7.00;;;;;;;11.52;100.00;101967.19;6271931;22;20437;-80
2022/10/27 00:37:11;;;;;;;12.52;7.25;;;;;;;11.58;100.00;101967.84;6273305;22;20060;-80
2022/10/27 00:39:37;;;;;;;15.07;7.60;;;;;;;11.58;100.00;101974.94;6275121;22;19999;-81
2022/10/27 00:42:02;;;;;;;12.27;6.85;;;;;;;11.62;100.00;101973.91;6274175;22;20066;-81
2022/10/27 00:44:35;;;;;;;9.65;6.50;;;;;;;11.60;100.00;101975.75;6275481;22;20030;-81
2022/10/27 00:47:28;;;;;;;11.02;6.50;;;;;;;11.62;100.00;101982.78;6275938;22;20026;-82
2022/10/27 00:50:02;;;;;;;10.95;6.00;;;;;;;11.60;100.00;101973.09;6272779;22;20007;-81
2022/10/27 00:52:48;;;;;;;10.00;5.80;;;;;;;11.70;100.00;101977.16;6270158;22;20000;-82
2022/10/27 00:55:16;;;;;;;12.13;6.13;;;;;;;11.72;100.00;101983.31;6270849;22;20003;-80
2022/10/27 00:57:45;;;;;;;10.00;6.00;;;;;;;11.73;100.00;101982.38;6272786;22;20039;-79
2022/10/27 01:00:11;;;;;;;9.30;6.40;;;;;;;11.76;100.00;101984.94;6271677;22;20121;-80
2022/10/27 01:02:36;;;;;;;6.85;5.72;;;;;;;11.80;100.00;101988.38;6271623;22;20106;-81
2022/10/27 01:05:07;;;;;;;6.68;5.75;;;;;;;11.82;100.00;101983.81;6271886;22;20008;-80
2022/10/27 01:07:32;;;;;;;6.95;5.45;;;;;;;11.85;100.00;101997.97;6271615;22;20088;-81
2022/10/27 01:09:58;;;;;;;8.77;6.28;;;;;;;11.87;100.00;101988.13;6274226;22;20027;-81
2022/10/27 01:12:24;;;;;;;7.05;5.90;;;;;;;11.88;100.00;101992.50;6272612;22;20030;-80
2022/10/27 01:14:50;;;;;;;9.25;6.10;;;;;;;11.89;100.00;101985.38;6272300;22;20079;-80
2022/10/27 01:17:53;;;;;;;9.52;6.00;;;;;;;11.90;100.00;101995.97;6271127;22;20000;-81
2022/10/27 01:20:40;;;;;;;7.30;5.60;;;;;;;11.93;100.00;101985.19;6273541;22;19995;-81
2022/10/27 01:23:18;;;;;;;9.27;5.97;;;;;;;11.94;100.00;101994.94;6270984;22;20031;-80
2022/10/27 01:26:11;;;;;;;11.02;6.85;;;;;;;11.96;100.00;102001.09;6271776;22;20337;-81
2022/10/27 01:29:07;;;;;;;8.83;6.37;;;;;;;11.96;100.00;101997.56;6273138;22;20511;-81
2022/10/27 01:31:49;;;;;;;11.75;5.95;;;;;;;11.94;100.00;102004.75;6272878;22;20035;-81
2022/10/27 01:34:28;;;;;;;7.32;5.78;;;;;;;11.93;100.00;101995.88;6270876;22;20000;-80
2022/10/27 01:37:03;;;;;;;8.02;5.88;;;;;;;11.90;100.00;101995.09;6271549;22;20077;-80
2022/10/27 01:39:49;;;;;;;10.13;5.82;;;;;;;11.86;100.00;101999.69;6271610;22;20006;-81
2022/10/27 01:42:21;;;;;;;9.77;6.15;;;;;;;11.81;100.00;101995.44;6271797;22;20006;-81
2022/10/27 01:44:51;;;;;;;12.30;6.10;;;;;;;11.78;100.00;102000.88;6270543;22;20119;-81
2022/10/27 01:47:17;;;;;;;10.18;5.97;;;;;;;11.72;100.00;101991.31;6272076;22;20543;-81
2022/10/27 01:49:42;;;;;;;8.15;5.50;;;;;;;11.75;100.00;101999.22;6272568;22;20086;-81
2022/10/27 01:52:42;;;;;;;10.30;6.00;;;;;;;11.74;100.00;101994.78;6271073;22;20003;-81
2022/10/27 01:55:18;;;;;;;10.40;5.93;;;;;;;11.73;100.00;101993.91;6271803;22;20008;-81
2022/10/27 01:57:57;;;;;;;9.18;5.70;;;;;;;11.68;100.00;101998.56;6272077;22;20388;-81
2022/10/27 02:00:23;;;;;;;8.13;5.95;;;;;;;11.63;100.00;101994.31;6270427;22;20114;-80
2022/10/27 02:02:54;;;;;;;14.85;7.40;;;;;;;11.74;100.00;101992.09;6270659;22;20011;-80
2022/10/27 02:05:56;;;;;;;16.83;6.72;;;;;;;11.76;100.00;101992.06;6271267;22;19996;-80
2022/10/27 02:08:39;;;;;;;12.35;6.55;;;;;;;11.66;100.00;101987.09;6269467;22;20035;-82
2022/10/27 02:11:07;;;;;;;11.97;6.53;;;;;;;11.68;100.00;101989.69;6269524;22;20042;-81
2022/10/27 02:13:36;;;;;;;11.73;6.50;;;;;;;11.67;100.00;101980.81;6271884;22;20234;-82
2022/10/27 02:16:39;;;;;;;9.77;6.18;;;;;;;11.66;100.00;101981.75;6269728;22;20004;-80
2022/10/27 02:19:12;;;;;;;9.25;6.38;;;;;;;11.72;100.00;101984.19;6222245;22;20015;-80
2022/10/27 02:21:40;;;;;;;10.57;6.50;;;;;;;11.69;100.00;101976.28;6269093;22;20006;-81
2022/10/27 02:24:06;;;;;;;9.55;6.95;;;;;;;11.65;100.00;101973.78;6270381;22;19995;-81
2022/10/27 02:27:04;;;;;;;8.15;6.53;;;;;;;11.64;100.00;101972.06;6273310;22;20014;-81
2022/10/27 02:29:39;;;;;;;9.75;6.55;;;;;;;11.59;100.00;101977.56;6273442;22;20451;-81
2022/10/27 02:32:08;;;;;;;10.02;5.95;;;;;;;11.51;100.00;101973.44;6271690;22;20079;-81
2022/10/27 02:34:36;;;;;;;8.68;6.72;;;;;;;11.50;100.00;101966.38;6272677;22;20011;-81
2022/10/27 02:37:03;;;;;;;7.93;6.05;;;;;;;11.46;100.00;101979.81;6272508;22;20377;-82
2022/10/27 02:39:29;;;;;;;10.35;5.85;;;;;;;11.43;100.00;101979.91;6272465;22;20008;-80
2022/10/27 02:41:54;;;;;;;8.60;6.50;;;;;;;11.40;100.00;101969.34;6271969;22;20083;-81
2022/10/27 02:44:19;;;;;;;6.75;6.07;;;;;;;11.36;100.00;101969.53;6271910;22;20086;-81
2022/10/27 02:46:44;;;;;;;9.52;6.13;;;;;;;11.33;100.00;101969.63;6271531;22;20007;-81
2022/10/27 02:49:10;;;;;;;9.57;6.72;;;;;;;11.29;100.00;101965.38;6272354;22;20440;-82
2022/10/27 02:51:35;;;;;;;8.25;5.65;;;;;;;11.27;100.00;101965.41;6271969;22;20007;-81
2022/10/27 02:54:00;;;;;;;7.90;6.20;;;;;;;11.21;100.00;101966.50;6272517;22;20476;-80
2022/10/27 02:56:25;;;;;;;6.63;5.93;;;;;;;11.14;100.00;101958.78;6272367;22;20038;-81
2022/10/27 02:58:51;;;;;;;9.30;5.78;;;;;;;11.08;100.00;101959.88;6273098;22;20482;-81
2022/10/27 03:01:16;;;;;;;7.07;5.72;;;;;;;11.08;100.00;101957.22;6269453;22;20012;-81
2022/10/27 03:03:41;;;;;;;9.25;5.90;;;;;;;11.02;100.00;101957.41;6271853;22;20014;-81
2022/10/27 03:06:07;;;;;;;6.70;5.30;;;;;;;11.00;100.00;101945.94;6272541;22;20010;-82
2022/10/27 03:08:32;;;;;;;8.88;5.93;;;;;;;10.97;100.00;101944.25;6272186;22;20099;-82
2022/10/27 03:10:57;;;;;;;9.23;6.38;;;;;;;11.09;100.00;101950.06;6270550;22;19999;-81
2022/10/27 03:13:22;;;;;;;9.52;6.30;;;;;;;10.98;100.00;101945.97;6273068;22;20011;-81
2022/10/27 03:15:48;;;;;;;9.68;6.07;;;;;;;10.89;100.00;101938.31;6270574;22;20322;-81
2022/10/27 03:18:13;;;;;;;9.25;6.25;;;;;;;10.94;100.00;101936.34;6272091;22;20007;-80
2022/10/27 03:20:38;;;;;;;10.18;5.85;;;;;;;10.95;100.00;101930.13;6271642;22;20003;-81
2022/10/27 03:23:04;;;;;;;8.75;5.70;;;;;;;10.86;100.00;101929.56;6271348;22;20011;-80
2022/10/27 03:25:29;;;;;;;10.80;5.60;;;;;;;10.87;100.00;101926.88;6271216;22;20004;-80
2022/10/27 03:27:54;;;;;;;7.80;5.93;;;;;;;10.80;100.00;101930.66;6270530;22;20123;-81
2022/10/27 03:30:20;;;;;;;9.60;5.75;;;;;;;10.76;100.00;101923.69;6270067;22;20293;-80
2022/10/27 03:32:47;;;;;;;7.72;5.88;;;;;;;10.70;100.00;101932.78;6271310;22;20062;-80
2022/10/27 03:35:13;;;;;;;7.50;6.03;;;;;;;10.73;100.00;101923.78;6270935;22;20422;-81
2022/10/27 03:37:38;;;;;;;12.52;5.75;;;;;;;10.75;100.00;101935.28;6271547;22;20035;-80
2022/10/27 03:40:04;;;;;;;10.90;6.78;;;;;;;10.77;100.00;101925.41;6272687;22;20601;-80
2022/10/27 03:42:30;;;;;;;10.15;6.50;;;;;;;10.76;100.00;101933.47;6271818;22;20027;-81
2022/10/27 03:44:55;;;;;;;11.98;7.00;;;;;;;10.81;100.00;101921.72;6294028;22;20006;-81
2022/10/27 03:47:20;;;;;;;10.57;7.57;;;;;;;10.85;100.00;101920.69;6270422;22;20065;-80
2022/10/27 03:49:46;;;;;;;9.98;6.95;;;;;;;10.82;100.00;101911.94;6270004;22;20074;-80
2022/10/27 03:52:11;;;;;;;12.23;6.53;;;;;;;10.70;100.00;101919.47;6268624;22;20418;-81
2022/10/27 03:54:36;;;;;;;11.50;7.03;;;;;;;10.72;100.00;101916.72;6270968;22;20318;-81
2022/10/27 03:57:02;;;;;;;10.98;6.93;;;;;;;10.67;100.00;101924.00;6271527;22;20007;-81
2022/10/27 03:59:27;;;;;;;12.55;7.25;;;;;;;10.63;100.00;101922.38;6270440;22;20000;-81
2022/10/27 04:01:52;;;;;;;10.55;6.70;;;;;;;10.53;100.00;101923.59;6269662;22;20012;-81
2022/10/27 04:04:17;;;;;;;11.52;6.75;;;;;;;10.48;100.00;101921.09;6269055;22;20065;-81
2022/10/27 04:06:43;;;;;;;10.55;7.03;;;;;;;10.54;100.00;101910.25;6269954;22;20046;-82
2022/10/27 04:09:08;;;;;;;9.98;6.15;;;;;;;10.45;100.00;101918.53;6270368;22;20004;-81
2022/10/27 04:11:33;;;;;;;11.77;6.68;;;;;;;10.47;100.00;101917.56;6268966;22;20016;-81
2022/10/27 04:13:58;;;;;;;10.75;6.65;;;;;;;10.37;100.00;101923.25;6268318;22;20008;-80
2022/10/27 04:16:24;;;;;;;12.02;7.50;;;;;;;10.39;100.00;101924.06;6269783;22;20003;-81
2022/10/27 04:18:49;;;;;;;11.45;6.80;;;;;;;10.25;100.00;101924.50;6269768;22;20010;-81
2022/10/27 04:21:15;;;;;;;13.70;7.18;;;;;;;10.26;100.00;101930.69;6270614;22;20011;-81
2022/10/27 04:23:40;;;;;;;7.05;5.53;;;;;;;10.25;100.00;101926.31;6271898;22;20011;-80
2022/10/27 04:26:06;;;;;;;10.90;7.65;;;;;;;10.25;100.00;101932.50;6271552;22;20009;-81
2022/10/27 04:28:31;;;;;;;9.15;7.05;;;;;;;10.16;100.00;101933.63;6269307;22;20395;-80
2022/10/27 04:30:57;;;;;;;9.15;6.63;;;;;;;10.18;100.00;101937.09;6267220;22;20405;-82
2022/10/27 04:33:22;;;;;;;10.90;7.45;;;;;;;10.15;100.00;101941.63;6269478;22;20003;-81
2022/10/27 04:35:47;;;;;;;11.07;7.00;;;;;;;10.14;100.00;101943.44;6270460;22;20044;-81
2022/10/27 04:38:12;;;;;;;15.27;7.63;;;;;;;10.08;100.00;101940.97;6271024;22;20311;-81
2022/10/27 04:40:38;;;;;;;11.52;7.18;;;;;;;10.11;100.00;101951.50;6269594;22;20011;-81
2022/10/27 04:43:03;;;;;;;11.15;7.43;;;;;;;10.15;100.00;101950.47;6269932;22;20082;-81
2022/10/27 04:45:28;;;;;;;12.25;7.30;;;;;;;10.15;100.00;101949.63;6271301;22;20082;-81
2022/10/27 04:47:54;;;;;;;12.32;7.47;;;;;;;10.15;100.00;101944.28;6270938;22;20008;-81
2022/10/27 04:50:19;;;;;;;10.63;7.78;;;;;;;10.13;100.00;101943.50;6270994;22;19999;-81
2022/10/27 04:52:57;;;;;;;12.43;8.40;;;;;;;10.19;100.00;101951.25;6272183;22;20004;-80
2022/10/27 04:55:23;;;;;;;11.23;8.55;;;;;;;10.21;100.00;101955.63;6270254;22;20003;-80
2022/10/27 04:57:49;;;;;;;12.27;7.45;;;;;;;10.25;100.00;101955.56;6284318;22;20018;-81
2022/10/27 05:00:14;;;;;;;9.32;7.50;;;;;;;10.26;100.00;101942.22;6287710;22;20079;-80
2022/10/27 05:02:39;;;;;;;9.13;7.13;;;;;;;10.28;100.00;101951.00;6288587;22;20008;-80
2022/10/27 05:05:05;;;;;;;11.85;7.60;;;;;;;10.29;100.00;101942.13;6291876;22;19999;-81
2022/10/27 05:07:30;;;;;;;10.75;7.03;;;;;;;10.31;100.00;101953.56;6283655;22;20139;-81
2022/10/27 05:09:56;;;;;;;11.30;7.55;;;;;;;10.35;100.00;101941.03;6276335;22;20003;-80
2022/10/27 05:12:21;;;;;;;13.02;7.80;;;;;;;10.33;100.00;101940.25;6273913;22;20004;-80
2022/10/27 05:14:46;;;;;;;9.13;7.80;;;;;;;10.34;100.00;101940.16;6280012;22;19995;-82
2022/10/27 05:17:11;;;;;;;12.13;7.68;;;;;;;10.36;100.00;101946.31;6276064;22;20355;-82
2022/10/27 05:19:37;;;;;;;11.32;7.95;;;;;;;10.35;100.00;101941.91;6279143;22;20004;-81
2022/10/27 05:22:02;;;;;;;12.50;7.60;;;;;;;10.39;100.00;101934.69;6276138;22;20007;-81
2022/10/27 05:24:27;;;;;;;11.57;8.80;;;;;;;10.45;100.00;101935.38;6273207;22;20008;-80
2022/10/27 05:26:52;;;;;;;11.63;8.32;;;;;;;10.51;100.00;101931.63;6272777;22;20106;-80
2022/10/27 05:29:18;;;;;;;15.75;9.23;;;;;;;10.56;100.00;101926.16;6272458;22;20004;-82
2022/10/27 05:31:43;;;;;;;13.18;8.40;;;;;;;10.63;100.00;101935.69;6271326;22;20439;-81
2022/10/27 05:34:08;;;;;;;13.23;8.63;;;;;;;10.66;100.00;101932.94;6271703;22;20092;-81
2022/10/27 05:36:33;;;;;;;10.57;8.65;;;;;;;10.67;100.00;101932.88;6274469;22;20007;-81
2022/10/27 05:38:59;;;;;;;11.13;8.23;;;;;;;10.73;100.00;101921.13;6273122;22;20073;-81
2022/10/27 05:41:24;;;;;;;9.52;8.35;;;;;;;10.78;100.00;101926.28;6271703;22;19994;-81
2022/10/27 05:43:49;;;;;;;9.55;8.23;;;;;;;10.77;100.00;101925.41;6273416;22;20472;-81
2022/10/27 05:46:15;;;;;;;11.35;8.45;;;;;;;10.85;100.00;101925.16;6272194;22;20007;-81
2022/10/27 05:48:40;;;;;;;11.30;8.48;;;;;;;10.87;100.00;101923.34;6270311;22;20333;-82
2022/10/27 05:51:06;;;;;;;14.27;8.20;;;;;;;10.89;100.00;101932.13;6271044;22;20132;-81
2022/10/27 05:53:32;;;;;;;11.77;7.32;;;;;;;10.85;100.00;101918.03;6272112;22;20462;-81
2022/10/27 05:55:57;;;;;;;9.85;7.55;;;;;;;10.91;100.00;101919.59;6272109;22;20027;-80
2022/10/27 05:58:22;;;;;;;13.00;8.18;;;;;;;10.90;100.00;101915.22;6271045;22;20039;-81
2022/10/27 06:00:48;;;;;;;10.68;7.68;;;;;;;10.91;100.00;101927.59;6269306;22;20090;-81
2022/10/27 06:03:19;;;;;;;11.00;8.30;;;;;;;10.93;100.00;101933.75;6271150;22;20015;-81
2022/10/27 06:05:45;;;;;;;9.05;7.85;;;;;;;10.92;100.00;101926.69;6269063;22;20031;-81
2022/10/27 06:08:10;;;;;;;11.10;7.85;;;;;;;10.94;100.00;101925.69;6266964;22;19999;-80
2022/10/27 06:10:35;;;;;;;8.48;7.13;;;;;;;10.96;100.00;101928.34;6272120;22;20447;-81
2022/10/27 06:13:02;;;;;;;11.48;7.85;;;;;;;10.93;100.00;101931.97;6273444;22;20090;-80
2022/10/27 06:15:28;;;;;;;11.93;9.95;;;;;;;10.87;100.00;101926.88;6273367;22;19995;-81
2022/10/27 06:17:53;;;;;;;13.18;9.52;;;;;;;10.86;100.00;101922.44;6273437;22;20014;-80
2022/10/27 06:20:18;;;;;;;12.02;8.90;;;;;;;10.88;100.00;101919.75;6270069;22;20120;-81
2022/10/27 06:22:47;;;;;;;10.65;7.40;;;;;;;10.79;100.00;101904.94;6270548;22;20345;-80
2022/10/27 06:25:12;;;;;;;9.98;6.88;;;;;;;10.77;100.00;101906.78;6272076;22;20341;-81
2022/10/27 06:27:37;;;;;;;8.35;6.90;;;;;;;10.71;100.00;101907.00;6272954;22;19999;-82
2022/10/27 06:30:03;;;;;;;11.30;7.63;;;;;;;10.78;100.00;101905.84;6271973;22;20008;-82
2022/10/27 06:32:28;;;;;;;10.52;7.80;;;;;;;10.72;100.00;101911.41;6271328;22;20350;-81
2022/10/27 06:34:54;;;;;;;9.88;6.63;;;;;;;10.70;100.00;101907.91;6274480;22;20410;-82
2022/10/27 06:37:19;;;;;;;10.07;7.07;;;;;;;10.66;100.00;101908.97;6270058;22;20027;-81
2022/10/27 06:39:45;;;;;;;9.57;7.03;;;;;;;10.66;100.00;101901.84;6267130;22;20003;-81
2022/10/27 06:42:11;;;;;;;9.48;7.15;;;;;;;10.62;100.00;101889.56;6269706;22;20456;-80
2022/10/27 06:44:36;;;;;;;9.63;6.60;;;;;;;10.72;100.00;101893.63;6268697;22;20007;-81
2022/10/27 06:47:01;;;;;;;8.25;7.05;;;;;;;10.80;100.00;101906.69;6272782;22;20307;-81
2022/10/27 06:49:26;;;;;;;9.43;6.55;;;;;;;10.80;100.00;101892.50;6272102;22;19999;-81
2022/10/27 06:51:53;;;;;;;10.38;6.93;;;;;;;10.81;100.00;101894.22;6270402;22;20370;-81
2022/10/27 06:54:18;;;;;;;8.15;6.45;;;;;;;10.86;100.00;101887.81;6271947;22;19984;-81
2022/10/27 06:56:44;;;;;;;11.75;7.32;;;;;;;10.90;100.00;101900.09;6269011;22;20034;-80
2022/10/27 06:59:09;;;;;;;11.02;7.07;;;;;;;10.95;100.00;101900.81;6266621;22;20011;-80
2022/10/27 07:01:34;;;;;;;8.73;6.35;;;;;;;10.92;100.00;101895.59;6270268;22;20083;-80
2022/10/27 07:04:00;;;;;;;12.82;6.97;;;;;;;11.00;100.00;101890.00;6270973;22;20311;-82
2022/10/27 07:06:25;;;;;;;16.95;6.93;;;;;;;11.06;100.00;101888.91;6269194;22;20090;-81
2022/10/27 07:08:51;;;;;;;8.48;6.78;;;;;;;11.16;100.00;101898.28;6268021;22;20686;-81
2022/10/27 07:11:17;;;;;;;9.40;6.47;;;;;;;11.17;100.00;101892.06;6268380;22;20004;-80
2022/10/27 07:13:42;;;;;;;12.52;7.07;;;;;;;11.28;100.00;101892.50;6269441;22;20046;-80
2022/10/27 07:16:09;;;;;;;10.50;6.43;;;;;;;11.35;100.00;101893.16;6268899;22;20417;-81
2022/10/27 07:18:36;;;;;;;8.52;6.88;;;;;;;11.34;100.00;101886.97;6270355;22;19999;-81
2022/10/27 07:21:01;;;;;;;9.55;6.50;;;;;;;11.40;100.00;101899.19;6269654;22;19998;-81
2022/10/27 07:23:26;;;;;;;10.35;6.10;;;;;;;11.46;100.00;101898.97;6270028;22;20075;-80
2022/10/27 07:25:52;;;;;;;7.82;6.15;;;;;;;11.47;100.00;101901.56;6268583;22;20181;-80
2022/10/27 07:28:18;;;;;;;10.35;6.68;;;;;;;11.54;100.00;101912.00;6269711;22;20012;-79
2022/10/27 07:30:43;;;;;;;10.00;6.60;;;;;;;11.57;100.00;101907.41;6270102;22;20010;-81
2022/10/27 07:33:10;;;;;;;9.88;6.40;;;;;;;11.62;100.00;101896.56;6270844;22;20004;-80
2022/10/27 07:35:36;;;;;;;8.20;6.72;;;;;;;11.73;100.00;101900.56;6269479;22;19991;-81
2022/10/27 07:38:01;;;;;;;8.38;6.05;;;;;;;11.79;100.00;101907.47;6271093;22;20008;-80
2022/10/27 07:40:27;;;;;;;7.70;5.65;;;;;;;11.83;100.00;101894.91;6268324;22;20003;-81
2022/10/27 07:42:55;;;;;;;10.55;6.35;;;;;;;11.91;100.00;101907.03;6271012;22;20007;-81
2022/10/27 07:45:23;;;;;;;7.03;5.70;;;;;;;12.05;100.00;101917.16;6270885;22;20053;-81
2022/10/27 07:47:51;;;;;;;7.97;5.68;;;;;;;12.17;100.00;101905.97;6271050;22;20020;-79
2022/10/27 07:50:17;;;;;;;9.52;6.13;;;;;;;12.31;100.00;101913.41;6267897;22;20003;-80
2022/10/27 07:52:45;;;;;;;7.75;5.40;;;;;;;12.40;100.00;101913.03;6267680;22;20012;-80
2022/10/27 07:55:11;;;;;;;6.43;5.20;;;;;;;12.49;100.00;101908.25;6293311;22;20003;-80
2022/10/27 07:57:37;;;;;;;10.35;5.90;;;;;;;12.58;100.00;101918.53;6269805;22;20414;-80
2022/10/27 08:00:07;;;;;;;7.32;5.07;;;;;;;12.65;100.00;101917.34;6266284;22;20012;-81
2022/10/27 08:02:32;;;;;;;11.13;5.30;;;;;;;12.74;100.00;101911.59;6270396;22;20018;-80
2022/10/27 08:04:58;;;;;;;10.27;5.70;;;;;;;12.80;100.00;101914.03;6268634;22;20331;-80
2022/10/27 08:07:23;;;;;;;7.65;5.25;;;;;;;12.86;100.00;101912.88;6268722;22;20017;-78
2022/10/27 08:09:49;;;;;;;9.57;4.80;;;;;;;12.98;100.00;101914.16;6267693;22;20082;-81
2022/10/27 08:12:14;;;;;;;7.30;4.95;;;;;;;13.06;100.00;101907.53;6268442;22;20018;-79
2022/10/27 08:14:39;;;;;;;8.13;5.20;;;;;;;13.16;100.00;101905.31;6268354;22;20079;-80
2022/10/27 08:17:05;;;;;;;6.30;4.75;;;;;;;13.23;100.00;101905.94;6268542;22;20474;-79
2022/10/27 08:19:30;;;;;;;8.25;4.30;;;;;;;13.33;100.00;101912.59;6268212;22;20000;-80
2022/10/27 08:21:55;;;;;;;7.88;4.47;;;;;;;13.36;100.00;101901.78;6270004;22;20003;-79
2022/10/27 08:24:20;;;;;;;7.68;4.47;;;;;;;13.42;100.00;101899.72;6268046;22;20433;-79
2022/10/27 08:26:46;;;;;;;6.07;4.13;;;;;;;13.47;99.19;101895.97;6268476;22;20008;-80
2022/10/27 08:29:11;;;;;;;8.02;4.38;;;;;;;13.47;99.19;101901.31;6267879;22;20004;-80
2022/10/27 08:31:36;;;;;;;6.30;3.60;;;;;;;13.49;99.86;101896.72;6268283;22;20084;-78
2022/10/27 08:34:01;;;;;;;7.68;3.80;;;;;;;13.54;99.13;101905.41;6269554;22;20011;-79
2022/10/27 08:36:27;;;;;;;6.25;3.65;;;;;;;13.62;98.93;101901.44;6270278;22;20004;-79
2022/10/27 08:38:52;;;;;;;5.25;3.45;;;;;;;13.68;97.81;101897.63;6272396;22;20080;-79
2022/10/27 08:41:33;;;;;;;6.05;3.67;;;;;;;13.80;96.96;101901.53;6273293;22;20007;-78
2022/10/27 08:44:14;;;;;;;4.97;3.75;;;;;;;13.87;97.10;101898.47;6273140;22;20035;-79
2022/10/27 08:46:49;;;;;;;6.22;3.20;;;;;;;14.01;96.00;101896.97;6270284;22;20509;-79
2022/10/27 08:49:28;;;;;;;5.20;2.90;;;;;;;14.14;94.91;101887.38;6270291;22;20003;-79
2022/10/27 08:52:02;;;;;;;5.05;2.70;;;;;;;14.28;94.11;101886.69;6271269;22;20084;-80
2022/10/27 08:54:28;;;;;;;3.78;2.95;;;;;;;14.42;93.17;101882.41;6271190;22;20023;-79
2022/10/27 08:56:56;;;;;;;5.45;2.58;;;;;;;14.50;92.82;101878.47;6272740;22;20376;-79
2022/10/27 08:59:23;;;;;;;4.03;2.40;;;;;;;14.72;91.22;101875.59;6272440;22;20408;-79
2022/10/27 09:02:00;;;;;;;3.97;2.47;;;;;;;14.86;90.47;101873.91;6270959;22;20010;-79
2022/10/27 09:04:32;;;;;;;3.65;2.20;;;;;;;15.04;89.08;101860.47;6271791;22;20007;-78
2022/10/27 09:07:13;;;;;;;4.40;2.33;;;;;;;15.22;88.05;101859.50;6271928;22;20004;-79
2022/10/27 09:09:50;;;;;;;3.75;2.13;;;;;;;15.38;86.89;101848.75;6270044;22;20008;-79
2022/10/27 09:12:22;;;;;;;4.53;2.00;;;;;;;15.54;84.27;101851.47;6272821;22;19999;-80
2022/10/27 09:15:03;;;;;;;5.32;2.00;;;;;;;15.69;83.01;101858.72;6271562;22;19999;-79
2022/10/27 09:17:37;;;;;;;3.72;1.88;;;;;;;15.79;82.54;101843.81;6269939;22;20445;-78
2022/10/27 09:20:24;;;;;;;5.18;1.80;;;;;;;15.92;84.50;101849.34;6270455;22;20414;-78
2022/10/27 09:22:52;;;;;;;2.63;1.73;;;;;;;16.00;81.40;101849.75;6273561;22;20325;-79
2022/10/27 09:25:20;;;;;;;4.82;1.95;;;;;;;16.11;81.32;101851.84;6270043;22;20418;-79
2022/10/27 09:27:54;;;;;;;3.97;1.85;;;;;;;16.29;79.14;101847.22;6271868;22;19999;-79
2022/10/27 09:30:20;;;;;;;3.95;1.67;;;;;;;16.40;79.82;101834.00;6271500;22;20010;-80
2022/10/27 09:32:48;;;;;;;3.72;1.90;;;;;;;16.47;80.35;101837.19;6273010;22;20031;-79
2022/10/27 09:35:16;;;;;;;2.70;1.52;;;;;;;16.60;78.97;101831.00;6271208;22;20007;-82
2022/10/27 09:37:42;;;;;;;3.83;1.73;;;;;;;16.68;78.57;101834.09;6273102;22;20064;-83
2022/10/27 09:40:12;;;;;;;5.28;1.92;;;;;;;16.80;78.40;101835.16;6273487;22;20027;-77
2022/10/27 09:42:39;;;;;;;5.60;1.85;;;;;;;16.92;78.13;101826.34;6273424;22;20013;-79
2022/10/27 09:45:19;;;;;;;5.25;1.60;;;;;;;17.06;78.82;101827.34;6270359;22;20662;-79
2022/10/27 09:47:49;;;;;;;4.75;1.73;;;;;;;17.11;76.30;101827.91;6268695;22;20018;-78
2022/10/27 09:50:49;;;;;;;3.47;1.50;;;;;;;17.12;76.35;101821.56;6271900;22;20012;-79
2022/10/27 09:53:51;;;;;;;4.28;1.50;;;;;;;17.13;76.93;101829.53;6247929;22;20425;-78
2022/10/27 09:56:32;;;;;;;2.75;1.33;;;;;;;17.09;74.99;101809.16;6275740;22;20030;-78
2022/10/27 09:59:01;;;;;;;4.05;1.80;;;;;;;17.05;74.40;101820.22;6273049;22;20004;-79
2022/10/27 10:01:50;;;;;;;4.95;1.55;;;;;;;16.97;76.99;101817.13;6270441;22;20504;-77
2022/10/27 10:04:24;;;;;;;2.53;1.67;;;;;;;16.97;75.65;101823.41;6273147;22;20000;-78
2022/10/27 10:07:03;;;;;;;2.72;1.50;;;;;;;17.03;76.22;101819.47;6271613;22;20110;-78
2022/10/27 10:09:38;;;;;;;4.72;1.90;;;;;;;17.07;76.75;101818.31;6270500;22;19999;-80
2022/10/27 10:12:24;;;;;;;4.47;1.90;;;;;;;17.19;77.65;101814.84;6269518;22;20014;-78
2022/10/27 10:15:22;;;;;;;4.68;1.90;;;;;;;17.25;75.59;101809.06;6268428;22;19999;-80
2022/10/27 10:17:59;;;;;;;5.72;1.85;;;;;;;17.49;75.11;101800.38;6218489;22;20011;-78
2022/10/27 10:20:40;;;;;;;3.55;1.85;;;;;;;17.75;74.81;101796.88;6269900;22;20430;-78
2022/10/27 10:23:20;;;;;;;2.85;1.52;;;;;;;18.00;73.04;101795.25;6272514;22;20073;-79
2022/10/27 10:25:48;;;;;;;3.83;1.70;;;;;;;18.10;71.00;101796.34;6271548;22;20429;-79
2022/10/27 10:28:38;;;;;;;3.35;1.70;;;;;;;18.24;72.90;101801.69;6270763;22;20003;-80
2022/10/27 10:31:07;;;;;;;2.72;1.50;;;;;;;18.36;70.13;101791.91;6255624;22;20012;-78
2022/10/27 10:33:36;;;;;;;3.97;1.60;;;;;;;18.56;69.70;101799.50;6272619;22;20004;-78
2022/10/27 10:36:15;;;;;;;4.43;1.48;;;;;;;18.71;71.95;101799.41;6273403;22;20074;-79
2022/10/27 10:38:48;;;;;;;4.35;1.70;;;;;;;18.85;70.24;101805.56;6267636;22;20042;-78
2022/10/27 10:41:19;;;;;;;;;;;;;;;19.02;72.68;101798.97;6271517;22;20003;-78
2022/10/27 10:43:44;;;;;;;7.75;1.85;;;;;;;18.97;67.27;101800.25;6269288;22;19904;-78
2022/10/27 10:46:22;;;;;;;4.10;1.67;;;;;;;19.07;68.42;101779.75;6270072;22;20498;-78
2022/10/27 10:48:54;;;;;;;4.90;1.55;;;;;;;19.12;67.23;101789.25;6268057;22;20015;-79
2022/10/27 10:51:29;;;;;;;3.70;1.90;;;;;;;19.16;67.32;101785.34;6268732;22;20023;-78
2022/10/27 10:54:04;;;;;;;3.85;1.90;;;;;;;19.17;67.33;101775.41;6269116;22;20003;-77
2022/10/27 10:56:32;;;;;;;4.28;1.80;;;;;;;19.26;65.83;101774.75;6268773;22;20476;-78
2022/10/27 10:59:11;;;;;;;3.70;1.70;;;;;;;19.32;67.60;101768.91;6268618;22;20108;-78
2022/10/27 11:01:53;;;;;;;3.38;1.70;;;;;;;19.53;68.82;101781.81;6269598;22;20346;-78
2022/10/27 11:04:23;;;;;;;7.40;1.83;;;;;;;19.73;66.85;101775.84;6269897;22;20004;-78
2022/10/27 11:07:06;;;;;;;3.45;1.70;;;;;;;19.88;67.94;101776.50;6270155;22;20061;-79
2022/10/27 11:09:58;;;;;;;4.07;1.85;;;;;;;20.07;67.20;101757.94;6269235;22;20004;-79
2022/10/27 11:12:28;;;;;;;3.20;1.67;;;;;;;19.99;65.81;101773.88;6270919;22;20167;-80
2022/10/27 11:14:57;;;;;;;4.15;1.70;;;;;;;20.04;65.58;101776.22;6270562;22;20010;-79
2022/10/27 11:17:24;;;;;;;4.32;1.67;;;;;;;20.15;64.45;101774.41;6269665;22;20003;-81
2022/10/27 11:19:51;;;;;;;4.32;1.70;;;;;;;20.17;64.27;101770.72;6272409;22;20006;-79
2022/10/27 11:22:18;;;;;;;2.78;1.33;;;;;;;20.22;63.38;101766.69;6271728;22;20008;-78
2022/10/27 11:24:52;;;;;;;3.28;2.00;;;;;;;20.05;64.71;101761.72;6271321;22;20012;-79
2022/10/27 11:27:32;;;;;;;4.53;1.80;;;;;;;19.86;65.23;101763.13;6268179;22;20008;-79